Time;durP1;ratioP1;P1;durP2;ratioP2;P2;SDS_P1;SDS_P2;PMS_P1;PMS_P2;Temp;Humidity;BMP_temperature;BMP_pressure;BME280_temperature;BME280_humidity;BME280_pressure;Samples;Min_cycle;Max_cycle;Signal;HPM_P1;HPM_P2
2024/04/19 00:00:17;;;;;;;;;;;;;;;;;;5495964;26;19936;-79
2024/04/19 00:02:44;;;;;;;;;;;;;;;;;;5478800;26;19935;-79
2024/04/19 00:05:10;;;;;;;;;;;;;;;;;;5505242;26;19931;-79
2024/04/19 00:07:35;;;;;;;;;;;;;;;;;;5485022;26;19939;-79
2024/04/19 00:10:00;;;;;;;;;;;;;;;;;;5496384;26;19932;-77
2024/04/19 00:12:25;;;;;;;;;;;;;;;;;;5464325;26;19996;-79
2024/04/19 00:14:51;;;;;;;;;;;;;;;;;;5510684;25;19985;-78
2024/04/19 00:17:16;;;;;;;;;;;;;;;;;;5475282;26;20369;-79
2024/04/19 00:19:41;;;;;;;;;;;;;;;;;;5514365;25;19953;-79
2024/04/19 00:22:06;;;;;;;;;;;;;;;;;;5472315;26;19928;-79
2024/04/19 00:24:31;;;;;;;;;;;;;;;;;;5484294;26;19939;-77
2024/04/19 00:26:56;;;;;;;;;;;;;;;;;;5526577;25;19996;-79
2024/04/19 00:29:21;;;;;;;;;;;;;;;;;;5462969;26;19927;-79
2024/04/19 00:31:46;;;;;;;;;;;;;;;;;;5492470;26;19927;-79
2024/04/19 00:34:11;;;;;;;;;;;;;;;;;;5505113;25;20369;-79
2024/04/19 00:36:37;;;;;;;;;;;;;;;;;;5467112;26;19936;-79
2024/04/19 00:39:02;;;;;;;;;;;;;;;;;;5478491;26;19928;-79
2024/04/19 00:41:27;;;;;;;;;;;;;;;;;;5524649;26;19931;-78
2024/04/19 00:43:52;;;;;;;;;;;;;;;;;;5477092;26;19928;-79
2024/04/19 00:46:17;;;;;;;;;;;;;;;;;;5474252;25;20274;-77
2024/04/19 00:48:43;;;;;;;;;;;;;;;;;;5498580;26;19934;-79
2024/04/19 00:51:08;;;;;;;;;;;;;;;;;;5495494;26;19998;-79
2024/04/19 00:53:33;;;;;;;;;;;;;;;;;;5509470;25;19938;-79
2024/04/19 00:55:58;;;;;;;;;;;;;;;;;;5469791;26;19931;-78
2024/04/19 00:58:23;;;;;;;;;;;;;;;;;;5484101;26;19928;-79
2024/04/19 01:00:49;;;;;;;;;;;;;;;;;;5516817;26;19927;-78
2024/04/19 01:03:14;;;;;;;;;;;;;;;;;;5487794;26;19928;-78
2024/04/19 01:05:39;;;;;;;;;;;;;;;;;;5497831;26;19935;-79
2024/04/19 01:08:04;;;;;;;;;;;;;;;;;;5517197;26;19932;-78
2024/04/19 01:10:29;;;;;;;;;;;;;;;;;;5469777;26;19928;-78
2024/04/19 01:12:54;;;;;;;;;;;;;;;;;;5482929;26;19928;-76
2024/04/19 01:15:20;;;;;;;;;;;;;;;;;;5517232;25;19939;-78
2024/04/19 01:17:45;;;;;;;;;;;;;;;;;;5493141;26;19928;-78
2024/04/19 01:20:10;;;;;;;;;;;;;;;;;;5457471;26;19932;-78
2024/04/19 01:22:35;;;;;;;;;;;;;;;;;;5458545;26;19928;-78
2024/04/19 01:25:00;;;;;;;;;;;;;;;;;;5526963;25;19928;-77
2024/04/19 01:27:25;;;;;;;;;;;;;;;;;;5512059;26;19928;-77
2024/04/19 01:29:50;;;;;;;;;;;;;;;;;;5491566;26;19928;-77
2024/04/19 01:32:15;;;;;;;;;;;;;;;;;;5469936;26;19943;-78
2024/04/19 01:34:41;;;;;;;;;;;;;;;;;;5509362;25;19939;-77
2024/04/19 01:37:06;;;;;;;;;;;;;;;;;;5491121;26;20371;-78
2024/04/19 01:39:31;;;;;;;;;;;;;;;;;;5491474;26;20308;-77
2024/04/19 01:41:56;;;;;;;;;;;;;;;;;;5506460;25;19939;-79
2024/04/19 01:44:21;;;;;;;;;;;;;;;;;;5503203;26;19960;-79
2024/04/19 01:46:46;;;;;;;;;;;;;;;;;;5493180;26;19928;-77
2024/04/19 01:49:11;;;;;;;;;;;;;;;;;;5484629;26;20366;-77
2024/04/19 01:51:36;;;;;;;;;;;;;;;;;;5497884;26;20374;-79
2024/04/19 01:54:02;;;;;;;;;;;;;;;;;;5487602;26;20366;-79
2024/04/19 01:56:27;;;;;;;;;;;;;;;;;;5461154;26;20397;-79
2024/04/19 01:58:52;;;;;;;;;;;;;;;;;;5463778;26;20208;-79
2024/04/19 02:01:17;;;;;;;;;;;;;;;;;;5496458;26;20268;-77
2024/04/19 02:03:42;;;;;;;;;;;;;;;;;;5513647;25;19938;-77
2024/04/19 02:06:07;;;;;;;;;;;;;;;;;;5499925;26;19939;-77
2024/04/19 02:08:32;;;;;;;;;;;;;;;;;;5518608;26;20265;-76
2024/04/19 02:10:57;;;;;;;;;;;;;;;;;;5533294;26;19995;-79
2024/04/19 02:13:23;;;;;;;;;;;;;;;;;;5533021;25;19927;-75
2024/04/19 02:15:48;;;;;;;;;;;;;;;;;;5518326;25;19928;-76
2024/04/19 02:18:13;;;;;;;;;;;;;;;;;;5499831;26;19927;-76
2024/04/19 02:20:38;;;;;;;;;;;;;;;;;;5532722;26;20382;-76
2024/04/19 02:23:03;;;;;;;;;;;;;;;;;;5531383;25;19927;-76
2024/04/19 02:25:28;;;;;;;;;;;;;;;;;;5518467;25;19935;-78
2024/04/19 02:30:55;;;;;;;;;;;;;;;;;;5532544;25;19930;-78
2024/04/19 02:33:20;;;;;;;;;;;;;;;;;;5509943;25;20331;-79
2024/04/19 02:35:45;;;;;;;;;;;;;;;;;;5501503;26;19976;-78
2024/04/19 02:38:10;;;;;;;;;;;;;;;;;;5498255;26;19928;-78
2024/04/19 02:40:35;;;;;;;;;;;;;;;;;;5497411;26;19935;-78
2024/04/19 02:43:00;;;;;;;;;;;;;;;;;;5487267;25;19927;-78
2024/04/19 02:45:25;;;;;;;;;;;;;;;;;;5536222;25;19934;-78
2024/04/19 02:47:50;;;;;;;;;;;;;;;;;;5514944;26;19932;-78
2024/04/19 02:50:15;;;;;;;;;;;;;;;;;;5466831;26;19997;-79
2024/04/19 02:52:41;;;;;;;;;;;;;;;;;;5480181;26;19943;-77
2024/04/19 02:55:06;;;;;;;;;;;;;;;;;;5499321;26;19996;-79
2024/04/19 02:57:31;;;;;;;;;;;;;;;;;;5512240;26;19928;-77
2024/04/19 02:59:56;;;;;;;;;;;;;;;;;;5498453;26;19928;-79
2024/04/19 03:02:21;;;;;;;;;;;;;;;;;;5492516;26;19939;-78
2024/04/19 03:04:47;;;;;;;;;;;;;;;;;;5482515;26;19939;-77
2024/04/19 03:07:12;;;;;;;;;;;;;;;;;;5473472;26;19927;-78
2024/04/19 03:09:37;;;;;;;;;;;;;;;;;;5485634;26;19934;-79
2024/04/19 03:12:02;;;;;;;;;;;;;;;;;;5487638;26;19952;-79
2024/04/19 03:14:27;;;;;;;;;;;;;;;;;;5488026;26;19928;-78
2024/04/19 03:16:52;;;;;;;;;;;;;;;;;;5470758;26;20270;-78
2024/04/19 03:19:17;;;;;;;;;;;;;;;;;;5498896;26;19934;-78
2024/04/19 03:21:42;;;;;;;;;;;;;;;;;;5499892;26;19973;-79
2024/04/19 03:24:08;;;;;;;;;;;;;;;;;;5483477;26;19935;-79
2024/04/19 03:26:33;;;;;;;;;;;;;;;;;;5532911;26;19927;-78
2024/04/19 03:28:58;;;;;;;;;;;;;;;;;;5485415;25;19934;-78
2024/04/19 03:31:23;;;;;;;;;;;;;;;;;;5521090;26;19928;-80
2024/04/19 03:33:48;;;;;;;;;;;;;;;;;;5478266;26;20338;-80
2024/04/19 03:36:13;;;;;;;;;;;;;;;;;;5464439;26;20348;-79
2024/04/19 03:38:38;;;;;;;;;;;;;;;;;;5478691;26;19928;-78
2024/04/19 03:41:03;;;;;;;;;;;;;;;;;;5523844;26;19940;-79
2024/04/19 03:43:33;;;;;;;;;;;;;;;;;;5505069;26;19934;-79
2024/04/19 03:45:58;;;;;;;;;;;;;;;;;;5538783;26;19928;-80
2024/04/19 03:48:23;;;;;;;;;;;;;;;;;;5478053;26;19934;-79
2024/04/19 03:50:49;;;;;;;;;;;;;;;;;;5503641;26;19927;-78
2024/04/19 03:53:14;;;;;;;;;;;;;;;;;;5537258;25;19927;-80
2024/04/19 03:55:39;;;;;;;;;;;;;;;;;;5485341;26;19927;-78
2024/04/19 03:58:04;;;;;;;;;;;;;;;;;;5533945;25;19928;-78
2024/04/19 04:00:29;;;;;;;;;;;;;;;;;;5500026;26;19927;-79
2024/04/19 04:02:54;;;;;;;;;;;;;;;;;;5526272;25;19939;-79
2024/04/19 04:05:19;;;;;;;;;;;;;;;;;;5508481;26;19995;-79
2024/04/19 04:07:45;;;;;;;;;;;;;;;;;;5516422;26;19936;-80
2024/04/19 04:10:10;;;;;;;;;;;;;;;;;;5497616;26;19936;-79
2024/04/19 04:12:35;;;;;;;;;;;;;;;;;;5527881;25;19931;-79
2024/04/19 04:15:00;;;;;;;;;;;;;;;;;;5485960;26;19927;-79
2024/04/19 04:17:25;;;;;;;;;;;;;;;;;;5532940;25;20425;-78
2024/04/19 04:19:51;;;;;;;;;;;;;;;;;;5532230;26;20377;-79
2024/04/19 04:22:16;;;;;;;;;;;;;;;;;;5485482;26;19931;-80
2024/04/19 04:24:41;;;;;;;;;;;;;;;;;;5467431;26;19939;-80
2024/04/19 04:27:06;;;;;;;;;;;;;;;;;;5488111;26;19927;-80
2024/04/19 04:29:31;;;;;;;;;;;;;;;;;;5500891;25;20374;-78
2024/04/19 04:31:56;;;;;;;;;;;;;;;;;;5519594;26;19934;-77
2024/04/19 04:34:22;;;;;;;;;;;;;;;;;;5531649;25;19972;-80
2024/04/19 04:36:47;;;;;;;;;;;;;;;;;;5466381;26;19956;-80
2024/04/19 04:39:12;;;;;;;;;;;;;;;;;;5506124;26;19934;-79
2024/04/19 04:41:39;;;;;;;;;;;;;;;;;;5529925;25;20333;-78
2024/04/19 04:44:04;;;;;;;;;;;;;;;;;;5456973;26;19934;-79
2024/04/19 04:46:29;;;;;;;;;;;;;;;;;;5489166;26;19928;-80
2024/04/19 04:48:54;;;;;;;;;;;;;;;;;;5472556;26;19928;-77
2024/04/19 04:51:19;;;;;;;;;;;;;;;;;;5458677;26;19935;-77
2024/04/19 04:53:44;;;;;;;;;;;;;;;;;;5508585;26;19996;-78
2024/04/19 04:56:09;;;;;;;;;;;;;;;;;;5503062;26;19935;-78
2024/04/19 04:58:35;;;;;;;;;;;;;;;;;;5507276;26;20277;-78
2024/04/19 05:01:00;;;;;;;;;;;;;;;;;;5473488;26;19935;-78
2024/04/19 05:03:25;;;;;;;;;;;;;;;;;;5487123;26;19927;-78
2024/04/19 05:05:50;;;;;;;;;;;;;;;;;;5476670;26;19976;-78
2024/04/19 05:08:15;;;;;;;;;;;;;;;;;;5493025;26;19996;-78
2024/04/19 05:10:40;;;;;;;;;;;;;;;;;;5509988;26;19949;-77
2024/04/19 05:13:06;;;;;;;;;;;;;;;;;;5480295;25;19928;-78
2024/04/19 05:15:31;;;;;;;;;;;;;;;;;;5498746;26;19928;-78
2024/04/19 05:17:56;;;;;;;;;;;;;;;;;;5492609;25;19928;-80
2024/04/19 05:20:21;;;;;;;;;;;;;;;;;;5519790;26;20376;-80
2024/04/19 05:22:46;;;;;;;;;;;;;;;;;;5497354;26;19934;-80
2024/04/19 05:25:11;;;;;;;;;;;;;;;;;;5529273;25;19927;-78
2024/04/19 05:27:37;;;;;;;;;;;;;;;;;;5514232;25;19935;-80
2024/04/19 05:30:02;;;;;;;;;;;;;;;;;;5517581;25;19928;-80
2024/04/19 05:32:27;;;;;;;;;;;;;;;;;;5521353;26;19996;-80
2024/04/19 05:34:52;;;;;;;;;;;;;;;;;;5494657;26;19928;-80
2024/04/19 05:37:19;;;;;;;;;;;;;;;;;;5513747;26;19996;-79
2024/04/19 05:39:44;;;;;;;;;;;;;;;;;;5499467;26;19937;-79
2024/04/19 05:42:09;;;;;;;;;;;;;;;;;;5534911;26;19975;-79
2024/04/19 05:44:34;;;;;;;;;;;;;;;;;;5534434;25;19940;-80
2024/04/19 05:47:00;;;;;;;;;;;;;;;;;;5494855;26;20378;-78
2024/04/19 05:49:25;;;;;;;;;;;;;;;;;;5480415;26;19932;-79
2024/04/19 05:51:50;;;;;;;;;;;;;;;;;;5518074;26;20007;-79
2024/04/19 05:54:15;;;;;;;;;;;;;;;;;;5475295;26;19927;-79
2024/04/19 05:56:41;;;;;;;;;;;;;;;;;;5527000;26;19927;-79
2024/04/19 05:59:06;;;;;;;;;;;;;;;;;;5522171;25;19953;-80
2024/04/19 06:01:31;;;;;;;;;;;;;;;;;;5499701;26;19934;-80
2024/04/19 06:04:03;;;;;;;;;;;;;;;;;;5498836;26;19928;-89
2024/04/19 06:06:28;;;;;;;;;;;;;;;;;;5481984;26;19931;-81
2024/04/19 06:08:53;;;;;;;;;;;;;;;;;;5528514;25;19935;-81
2024/04/19 06:11:18;;;;;;;;;;;;;;;;;;5529477;25;19935;-81
2024/04/19 06:13:47;;;;;;;;;;;;;;;;;;5526458;25;19935;-81
2024/04/19 06:16:12;;;;;;;;;;;;;;;;;;5529860;25;20099;-80
2024/04/19 06:18:37;;;;;;;;;;;;;;;;;;5497224;26;19931;-82
2024/04/19 06:21:02;;;;;;;;;;;;;;;;;;5529276;26;19939;-80
2024/04/19 06:23:28;;;;;;;;;;;;;;;;;;5529660;25;20377;-82
2024/04/19 06:25:55;;;;;;;;;;;;;;;;;;5531380;25;20278;-81
2024/04/19 06:28:20;;;;;;;;;;;;;;;;;;5497874;26;19932;-81
2024/04/19 06:30:45;;;;;;;;;;;;;;;;;;5530740;25;19939;-82
2024/04/19 06:33:11;;;;;;;;;;;;;;;;;;5529409;25;19951;-80
2024/04/19 06:35:37;;;;;;;;;;;;;;;;;;5497615;26;20028;-81
2024/04/19 06:38:02;;;;;;;;;;;;;;;;;;5531396;25;19960;-82
2024/04/19 06:40:27;;;;;;;;;;;;;;;;;;5498388;26;19928;-80
2024/04/19 06:42:52;;;;;;;;;;;;;;;;;;5514983;26;19938;-81
2024/04/19 06:45:17;;;;;;;;;;;;;;;;;;5497697;26;20385;-81
2024/04/19 06:47:42;;;;;;;;;;;;;;;;;;5498350;26;19995;-82
2024/04/19 06:50:08;;;;;;;;;;;;;;;;;;5531494;25;19931;-81
2024/04/19 06:52:33;;;;;;;;;;;;;;;;;;5531716;26;19927;-81
2024/04/19 06:54:58;;;;;;;;;;;;;;;;;;5531904;25;19928;-81
2024/04/19 06:57:23;;;;;;;;;;;;;;;;;;5499357;25;19935;-83
2024/04/19 06:59:48;;;;;;;;;;;;;;;;;;5531239;25;19953;-81
2024/04/19 07:02:13;;;;;;;;;;;;;;;;;;5498638;26;19958;-82
2024/04/19 07:04:38;;;;;;;;;;;;;;;;;;5498019;26;19935;-81
2024/04/19 07:07:03;;;;;;;;;;;;;;;;;;5531118;25;20285;-83
2024/04/19 07:09:28;;;;;;;;;;;;;;;;;;5516049;25;19938;-82
2024/04/19 07:11:54;;;;;;;;;;;;;;;;;;5498513;25;19931;-81
2024/04/19 07:14:19;;;;;;;;;;;;;;;;;;5496592;26;20251;-84
2024/04/19 07:16:44;;;;;;;;;;;;;;;;;;5482587;26;20358;-82
2024/04/19 07:19:09;;;;;;;;;;;;;;;;;;5529780;25;20441;-82
2024/04/19 07:21:34;;;;;;;;;;;;;;;;;;5499036;26;19935;-81
2024/04/19 07:23:59;;;;;;;;;;;;;;;;;;5499056;26;19935;-83
2024/04/19 07:26:25;;;;;;;;;;;;;;;;;;5532298;25;19934;-81
2024/04/19 07:28:50;;;;;;;;;;;;;;;;;;5498422;26;19927;-82
2024/04/19 07:31:15;;;;;;;;;;;;;;;;;;5498175;26;19936;-81
2024/04/19 07:33:40;;;;;;;;;;;;;;;;;;5528483;25;19928;-81
2024/04/19 07:36:05;;;;;;;;;;;;;;;;;;5530953;26;19928;-81
2024/04/19 07:38:30;;;;;;;;;;;;;;;;;;5497929;26;19934;-81
2024/04/19 07:40:55;;;;;;;;;;;;;;;;;;5530451;25;19931;-81
2024/04/19 07:43:21;;;;;;;;;;;;;;;;;;5530142;25;19938;-81
2024/04/19 07:45:53;;;;;;;;;;;;;;;;;;5498603;26;19955;-83
2024/04/19 07:48:18;;;;;;;;;;;;;;;;;;5500302;26;20371;-82
2024/04/19 07:50:44;;;;;;;;;;;;;;;;;;5494777;26;20271;-81
2024/04/19 07:53:09;;;;;;;;;;;;;;;;;;5442835;26;19973;-81
2024/04/19 07:55:34;;;;;;;;;;;;;;;;;;5472629;26;19928;-82
2024/04/19 07:57:59;;;;;;;;;;;;;;;;;;5443915;26;19934;-82
2024/04/19 08:00:25;;;;;;;;;;;;;;;;;;5482821;26;19974;-80
2024/04/19 08:02:50;;;;;;;;;;;;;;;;;;5493407;26;20258;-83
2024/04/19 08:05:18;;;;;;;;;;;;;;;;;;5480834;26;19935;-84
2024/04/19 08:07:44;;;;;;;;;;;;;;;;;;5495215;26;19935;-83
2024/04/19 08:10:09;;;;;;;;;;;;;;;;;;5470485;26;19929;-84
2024/04/19 08:12:34;;;;;;;;;;;;;;;;;;5486128;26;20028;-83
2024/04/19 08:14:59;;;;;;;;;;;;;;;;;;5472664;26;19939;-83
2024/04/19 08:17:24;;;;;;;;;;;;;;;;;;5480226;26;19928;-82
2024/04/19 08:19:49;;;;;;;;;;;;;;;;;;5482778;26;20274;-81
2024/04/19 08:22:14;;;;;;;;;;;;;;;;;;5465634;26;20340;-81
2024/04/19 08:24:40;;;;;;;;;;;;;;;;;;5473086;26;20345;-82
2024/04/19 08:27:05;;;;;;;;;;;;;;;;;;5469293;25;19935;-80
2024/04/19 08:29:32;;;;;;;;;;;;;;;;;;5514689;25;19939;-81
2024/04/19 08:31:57;;;;;;;;;;;;;;;;;;5476788;26;19996;-82
2024/04/19 08:34:22;;;;;;;;;;;;;;;;;;5509409;25;19935;-82
2024/04/19 08:36:47;;;;;;;;;;;;;;;;;;5495172;26;19931;-82
2024/04/19 08:39:13;;;;;;;;;;;;;;;;;;5527603;25;19995;-81
2024/04/19 08:41:39;;;;;;;;;;;;;;;;;;5494950;25;19935;-82
2024/04/19 08:44:04;;;;;;;;;;;;;;;;;;5527116;25;19928;-80
2024/04/19 08:46:32;;;;;;;;;;;;;;;;;;5495657;26;19995;-81
2024/04/19 08:48:58;;;;;;;;;;;;;;;;;;5495992;26;19939;-80
2024/04/19 08:51:23;;;;;;;;;;;;;;;;;;5528586;25;19927;-80
2024/04/19 08:53:48;;;;;;;;;;;;;;;;;;5478976;26;19974;-81
2024/04/19 08:56:13;;;;;;;;;;;;;;;;;;5494277;26;19935;-81
2024/04/19 08:58:38;;;;;;;;;;;;;;;;;;5495563;26;19931;-81
2024/04/19 09:01:03;;;;;;;;;;;;;;;;;;5528276;26;19995;-82
2024/04/19 09:03:28;;;;;;;;;;;;;;;;;;5525701;25;20381;-84
2024/04/19 09:05:54;;;;;;;;;;;;;;;;;;5494267;26;19935;-79
2024/04/19 09:08:19;;;;;;;;;;;;;;;;;;5495233;26;20343;-80
2024/04/19 09:10:47;;;;;;;;;;;;;;;;;;5494067;25;19927;-86
2024/04/19 09:13:15;;;;;;;;;;;;;;;;;;5467033;26;19928;-86
2024/04/19 09:15:41;;;;;;;;;;;;;;;;;;5522960;25;19939;-80
2024/04/19 09:18:09;;;;;;;;;;;;;;;;;;5470529;26;19928;-87
2024/04/19 09:20:37;;;;;;;;;;;;;;;;;;5473137;26;19931;-89
2024/04/19 09:23:02;;;;;;;;;;;;;;;;;;5526934;25;19947;-80
2024/04/19 09:25:31;;;;;;;;;;;;;;;;;;5513796;25;19927;-86
2024/04/19 09:27:56;;;;;;;;;;;;;;;;;;5512307;25;19927;-81
2024/04/19 09:30:21;;;;;;;;;;;;;;;;;;5527434;25;19939;-79
2024/04/19 09:32:47;;;;;;;;;;;;;;;;;;5512782;25;20415;-80
2024/04/19 09:35:12;;;;;;;;;;;;;;;;;;5528791;25;19928;-80
2024/04/19 09:37:39;;;;;;;;;;;;;;;;;;5528907;25;20366;-80
2024/04/19 09:40:04;;;;;;;;;;;;;;;;;;5480782;26;19931;-80
2024/04/19 09:42:29;;;;;;;;;;;;;;;;;;5528181;25;19956;-80
2024/04/19 09:44:54;;;;;;;;;;;;;;;;;;5527617;25;19927;-82
2024/04/19 09:47:19;;;;;;;;;;;;;;;;;;5528096;26;19927;-81
2024/04/19 09:49:45;;;;;;;;;;;;;;;;;;5499457;26;19933;-80
2024/04/19 09:52:12;;;;;;;;;;;;;;;;;;5495418;25;19928;-82
2024/04/19 09:54:38;;;;;;;;;;;;;;;;;;5494621;26;19939;-81
2024/04/19 09:57:03;;;;;;;;;;;;;;;;;;5527837;26;19934;-85
2024/04/19 09:59:29;;;;;;;;;;;;;;;;;;5510157;25;19935;-81
2024/04/19 10:01:55;;;;;;;;;;;;;;;;;;5491958;26;20327;-84
2024/04/19 10:04:20;;;;;;;;;;;;;;;;;;5524587;25;19938;-86
2024/04/19 10:06:46;;;;;;;;;;;;;;;;;;5478525;26;20367;-85
2024/04/19 10:09:14;;;;;;;;;;;;;;;;;;5492716;26;19939;-84
2024/04/19 10:11:39;;;;;;;;;;;;;;;;;;5492112;26;20261;-88
2024/04/19 10:14:05;;;;;;;;;;;;;;;;;;5468939;26;19940;-80
2024/04/19 10:16:32;;;;;;;;;;;;;;;;;;5505435;25;19928;-87
2024/04/19 10:18:57;;;;;;;;;;;;;;;;;;5495541;26;20343;-87
2024/04/19 10:21:23;;;;;;;;;;;;;;;;;;5521159;25;20265;-85
2024/04/19 10:23:48;;;;;;;;;;;;;;;;;;5467188;26;20362;-82
2024/04/19 10:26:13;;;;;;;;;;;;;;;;;;5530752;26;20005;-83
2024/04/19 10:28:38;;;;;;;;;;;;;;;;;;5529827;26;20374;-83
2024/04/19 10:31:03;;;;;;;;;;;;;;;;;;5497220;26;19935;-82
2024/04/19 10:33:28;;;;;;;;;;;;;;;;;;5496348;26;20323;-83
2024/04/19 10:35:54;;;;;;;;;;;;;;;;;;5497515;25;20386;-83
2024/04/19 10:38:19;;;;;;;;;;;;;;;;;;5486010;26;19930;-83
2024/04/19 10:40:44;;;;;;;;;;;;;;;;;;5526834;25;20322;-83
2024/04/19 10:43:09;;;;;;;;;;;;;;;;;;5487377;26;20382;-84
2024/04/19 10:45:34;;;;;;;;;;;;;;;;;;5492290;26;19938;-83
2024/04/19 10:48:00;;;;;;;;;;;;;;;;;;5497890;26;19935;-82
2024/04/19 10:50:25;;;;;;;;;;;;;;;;;;5497091;26;19935;-83
2024/04/19 10:52:50;;;;;;;;;;;;;;;;;;5497340;26;20004;-83
2024/04/19 10:55:15;;;;;;;;;;;;;;;;;;5485854;26;19967;-83
2024/04/19 10:57:40;;;;;;;;;;;;;;;;;;5497061;26;19995;-82
2024/04/19 11:00:06;;;;;;;;;;;;;;;;;;5530327;26;19939;-82
2024/04/19 11:02:33;;;;;;;;;;;;;;;;;;5496911;26;19955;-82
2024/04/19 11:04:59;;;;;;;;;;;;;;;;;;5497810;26;19968;-82
2024/04/19 11:07:25;;;;;;;;;;;;;;;;;;5498778;26;20377;-82
2024/04/19 11:09:50;;;;;;;;;;;;;;;;;;5532547;25;20488;-83
2024/04/19 11:12:15;;;;;;;;;;;;;;;;;;5532984;25;20386;-81
2024/04/19 11:14:40;;;;;;;;;;;;;;;;;;5498562;26;19935;-84
2024/04/19 11:17:05;;;;;;;;;;;;;;;;;;5532636;25;19932;-82
2024/04/19 11:19:32;;;;;;;;;;;;;;;;;;5532270;25;20370;-83
2024/04/19 11:21:58;;;;;;;;;;;;;;;;;;5526322;26;20332;-82
2024/04/19 11:24:23;;;;;;;;;;;;;;;;;;5524067;25;20212;-82
2024/04/19 11:26:49;;;;;;;;;;;;;;;;;;5500244;26;19976;-82
2024/04/19 11:29:14;;;;;;;;;;;;;;;;;;5532861;25;20261;-81
2024/04/19 11:31:40;;;;;;;;;;;;;;;;;;5498056;26;20238;-83
2024/04/19 11:34:05;;;;;;;;;;;;;;;;;;5529097;25;20382;-84
2024/04/19 11:36:30;;;;;;;;;;;;;;;;;;5498066;26;19942;-81
2024/04/19 11:38:55;;;;;;;;;;;;;;;;;;5527284;25;19928;-83
2024/04/19 11:41:20;;;;;;;;;;;;;;;;;;5494505;26;20263;-83
2024/04/19 11:43:47;;;;;;;;;;;;;;;;;;5525368;25;20205;-84
2024/04/19 11:46:12;;;;;;;;;;;;;;;;;;5494401;26;19927;-84
2024/04/19 11:48:37;;;;;;;;;;;;;;;;;;5526986;26;19927;-83
2024/04/19 11:51:02;;;;;;;;;;;;;;;;;;5527245;25;19927;-82
2024/04/19 11:53:28;;;;;;;;;;;;;;;;;;5526782;25;19927;-82
2024/04/19 11:55:54;;;;;;;;;;;;;;;;;;5526955;25;19935;-82
2024/04/19 11:58:19;;;;;;;;;;;;;;;;;;5528442;25;19935;-83
2024/04/19 12:00:44;;;;;;;;;;;;;;;;;;5495556;26;19927;-83
2024/04/19 12:03:09;;;;;;;;;;;;;;;;;;5527946;25;20003;-83
2024/04/19 12:05:34;;;;;;;;;;;;;;;;;;5495739;25;19935;-83
2024/04/19 12:08:00;;;;;;;;;;;;;;;;;;5529135;25;20438;-82
2024/04/19 12:10:25;;;;;;;;;;;;;;;;;;5495665;26;19934;-84
2024/04/19 12:12:50;;;;;;;;;;;;;;;;;;5495070;26;19927;-81
2024/04/19 12:15:16;;;;;;;;;;;;;;;;;;5494811;26;19927;-82
2024/04/19 12:17:41;;;;;;;;;;;;;;;;;;5495035;26;20318;-82
2024/04/19 12:20:06;;;;;;;;;;;;;;;;;;5527743;25;19936;-82
2024/04/19 12:22:31;;;;;;;;;;;;;;;;;;5527421;25;20472;-82
2024/04/19 12:24:56;;;;;;;;;;;;;;;;;;5479742;26;20435;-82
2024/04/19 12:27:21;;;;;;;;;;;;;;;;;;5495168;26;20267;-84
2024/04/19 12:29:46;;;;;;;;;;;;;;;;;;5494840;26;20431;-82
2024/04/19 12:32:11;;;;;;;;;;;;;;;;;;5527410;25;19939;-84
2024/04/19 12:34:38;;;;;;;;;;;;;;;;;;5527089;25;19927;-82
2024/04/19 12:37:03;;;;;;;;;;;;;;;;;;5527537;25;19993;-83
2024/04/19 12:39:28;;;;;;;;;;;;;;;;;;5528119;25;19980;-84
2024/04/19 12:41:54;;;;;;;;;;;;;;;;;;5494645;26;20294;-82
2024/04/19 12:44:19;;;;;;;;;;;;;;;;;;5526557;25;19939;-82
2024/04/19 12:46:44;;;;;;;;;;;;;;;;;;5494576;26;19939;-82
2024/04/19 12:49:11;;;;;;;;;;;;;;;;;;5527701;25;19995;-82
2024/04/19 12:51:37;;;;;;;;;;;;;;;;;;5527446;26;19934;-79
2024/04/19 12:54:02;;;;;;;;;;;;;;;;;;5495299;26;19955;-83
2024/04/19 12:56:27;;;;;;;;;;;;;;;;;;5495398;26;19927;-82
2024/04/19 12:58:52;;;;;;;;;;;;;;;;;;5527848;25;19939;-81
2024/04/19 13:01:17;;;;;;;;;;;;;;;;;;5494573;26;20399;-83
2024/04/19 13:03:42;;;;;;;;;;;;;;;;;;5526159;25;19927;-81
2024/04/19 13:06:07;;;;;;;;;;;;;;;;;;5519033;26;19935;-82
2024/04/19 13:08:32;;;;;;;;;;;;;;;;;;5522216;25;19927;-81
2024/04/19 13:10:57;;;;;;;;;;;;;;;;;;5527588;25;19942;-83
2024/04/19 13:13:23;;;;;;;;;;;;;;;;;;5494386;26;19927;-81
2024/04/19 13:15:48;;;;;;;;;;;;;;;;;;5494726;26;20419;-83
2024/04/19 13:18:13;;;;;;;;;;;;;;;;;;5527431;25;19928;-83
2024/04/19 13:20:38;;;;;;;;;;;;;;;;;;5527824;26;20394;-83
2024/04/19 13:23:04;;;;;;;;;;;;;;;;;;5511817;25;19927;-83
2024/04/19 13:25:29;;;;;;;;;;;;;;;;;;5528049;25;19999;-83
2024/04/19 13:27:55;;;;;;;;;;;;;;;;;;5527024;26;19932;-83
2024/04/19 13:30:20;;;;;;;;;;;;;;;;;;5527108;26;19938;-83
2024/04/19 13:32:45;;;;;;;;;;;;;;;;;;5493898;26;19927;-84
2024/04/19 13:35:10;;;;;;;;;;;;;;;;;;5492722;25;19931;-84
2024/04/19 13:37:35;;;;;;;;;;;;;;;;;;5527319;25;19934;-81
2024/04/19 13:40:00;;;;;;;;;;;;;;;;;;5526993;25;19995;-83
2024/04/19 13:42:26;;;;;;;;;;;;;;;;;;5494371;26;19935;-83
2024/04/19 13:44:51;;;;;;;;;;;;;;;;;;5493832;26;19939;-83
2024/04/19 13:47:16;;;;;;;;;;;;;;;;;;5495425;26;19927;-82
2024/04/19 13:49:42;;;;;;;;;;;;;;;;;;5479147;26;19934;-83
2024/04/19 13:52:07;;;;;;;;;;;;;;;;;;5496210;26;19928;-80
2024/04/19 13:54:33;;;;;;;;;;;;;;;;;;5497933;26;19934;-81
2024/04/19 13:56:58;;;;;;;;;;;;;;;;;;5498566;26;19927;-83
2024/04/19 13:59:23;;;;;;;;;;;;;;;;;;5498763;26;19932;-81
2024/04/19 14:01:51;;;;;;;;;;;;;;;;;;5526682;25;19931;-84
2024/04/19 14:04:16;;;;;;;;;;;;;;;;;;5490818;26;20267;-84
2024/04/19 14:06:41;;;;;;;;;;;;;;;;;;5495875;26;20236;-84
2024/04/19 14:09:07;;;;;;;;;;;;;;;;;;5531140;25;20292;-83
2024/04/19 14:11:32;;;;;;;;;;;;;;;;;;5531512;25;19927;-83
2024/04/19 14:13:57;;;;;;;;;;;;;;;;;;5497691;26;19928;-84
2024/04/19 14:16:23;;;;;;;;;;;;;;;;;;5500076;26;19934;-83
2024/04/19 14:18:48;;;;;;;;;;;;;;;;;;5483553;25;19959;-83
2024/04/19 14:21:13;;;;;;;;;;;;;;;;;;5533685;25;20389;-82
2024/04/19 14:23:40;;;;;;;;;;;;;;;;;;5533906;25;20378;-83
2024/04/19 14:26:06;;;;;;;;;;;;;;;;;;5496018;26;19928;-83
2024/04/19 14:28:31;;;;;;;;;;;;;;;;;;5495278;26;19927;-83
2024/04/19 14:30:56;;;;;;;;;;;;;;;;;;5501921;26;19927;-82
2024/04/19 14:33:21;;;;;;;;;;;;;;;;;;5495141;25;19934;-81
2024/04/19 14:35:46;;;;;;;;;;;;;;;;;;5482168;25;19928;-81
2024/04/19 14:38:11;;;;;;;;;;;;;;;;;;5499417;26;19937;-81
2024/04/19 14:40:36;;;;;;;;;;;;;;;;;;5530862;26;19935;-82
2024/04/19 14:43:01;;;;;;;;;;;;;;;;;;5497770;25;20003;-81
2024/04/19 14:45:26;;;;;;;;;;;;;;;;;;5531343;25;19927;-81
2024/04/19 14:47:52;;;;;;;;;;;;;;;;;;5531730;25;19938;-81
2024/04/19 14:50:17;;;;;;;;;;;;;;;;;;5520492;26;19928;-81
2024/04/19 14:52:42;;;;;;;;;;;;;;;;;;5527769;25;20331;-82
2024/04/19 14:55:07;;;;;;;;;;;;;;;;;;5499256;26;19934;-81
2024/04/19 14:57:32;;;;;;;;;;;;;;;;;;5499231;26;19962;-80
2024/04/19 14:59:57;;;;;;;;;;;;;;;;;;5532574;25;19934;-83
2024/04/19 15:02:22;;;;;;;;;;;;;;;;;;5501623;26;20363;-81
2024/04/19 15:04:47;;;;;;;;;;;;;;;;;;5494138;26;20263;-82
2024/04/19 15:07:13;;;;;;;;;;;;;;;;;;5529313;25;19928;-82
2024/04/19 15:09:38;;;;;;;;;;;;;;;;;;5497058;26;20048;-82
2024/04/19 15:12:03;;;;;;;;;;;;;;;;;;5529731;25;19931;-81
2024/04/19 15:14:28;;;;;;;;;;;;;;;;;;5496910;26;19995;-81
2024/04/19 15:16:53;;;;;;;;;;;;;;;;;;5497832;26;19935;-83
2024/04/19 15:19:19;;;;;;;;;;;;;;;;;;5530485;26;19934;-81
2024/04/19 15:21:44;;;;;;;;;;;;;;;;;;5484191;26;19940;-81
2024/04/19 15:24:10;;;;;;;;;;;;;;;;;;5499563;26;19939;-80
2024/04/19 15:26:35;;;;;;;;;;;;;;;;;;5532923;25;19932;-81
2024/04/19 15:29:00;;;;;;;;;;;;;;;;;;5533250;25;19968;-83
2024/04/19 15:31:28;;;;;;;;;;;;;;;;;;5530451;25;19928;-81
2024/04/19 15:33:53;;;;;;;;;;;;;;;;;;5497232;26;19938;-81
2024/04/19 15:36:21;;;;;;;;;;;;;;;;;;5499107;26;19935;-82
2024/04/19 15:38:46;;;;;;;;;;;;;;;;;;5531658;26;19935;-81
2024/04/19 15:41:11;;;;;;;;;;;;;;;;;;5532166;25;19939;-82
2024/04/19 15:43:36;;;;;;;;;;;;;;;;;;5530821;25;19938;-82
2024/04/19 15:46:02;;;;;;;;;;;;;;;;;;5499063;26;19940;-82
2024/04/19 15:48:27;;;;;;;;;;;;;;;;;;5499322;26;19935;-83
2024/04/19 15:50:52;;;;;;;;;;;;;;;;;;5531793;25;19947;-83
2024/04/19 15:53:18;;;;;;;;;;;;;;;;;;5498101;25;19935;-84
2024/04/19 15:55:43;;;;;;;;;;;;;;;;;;5533481;26;19928;-82
2024/04/19 15:58:09;;;;;;;;;;;;;;;;;;5501905;26;19927;-83
2024/04/19 16:00:34;;;;;;;;;;;;;;;;;;5534520;26;19927;-83
2024/04/19 16:02:59;;;;;;;;;;;;;;;;;;5533640;25;19927;-82
2024/04/19 16:05:25;;;;;;;;;;;;;;;;;;5534487;25;19931;-83
2024/04/19 16:07:50;;;;;;;;;;;;;;;;;;5502195;26;19992;-83
2024/04/19 16:10:15;;;;;;;;;;;;;;;;;;5500968;26;19927;-81
2024/04/19 16:12:40;;;;;;;;;;;;;;;;;;5534784;25;19976;-83
2024/04/19 16:15:05;;;;;;;;;;;;;;;;;;5487290;26;19927;-81
2024/04/19 16:17:30;;;;;;;;;;;;;;;;;;5501109;25;19939;-83
2024/04/19 16:19:55;;;;;;;;;;;;;;;;;;5534708;26;19927;-81
2024/04/19 16:22:20;;;;;;;;;;;;;;;;;;5533816;25;19927;-82
2024/04/19 16:24:45;;;;;;;;;;;;;;;;;;5499741;26;20373;-81
2024/04/19 16:27:11;;;;;;;;;;;;;;;;;;5535472;26;19928;-82
2024/04/19 16:29:36;;;;;;;;;;;;;;;;;;5501122;26;19928;-82
2024/04/19 16:32:01;;;;;;;;;;;;;;;;;;5534280;25;20390;-82
2024/04/19 16:34:26;;;;;;;;;;;;;;;;;;5534740;25;19927;-83